Time;durP1;ratioP1;P1;durP2;ratioP2;P2;SDS_P1;SDS_P2;PMS_P1;PMS_P2;Temp;Humidity;BMP_temperature;BMP_pressure;BME280_temperature;BME280_humidity;BME280_pressure;Samples;Min_cycle;Max_cycle;Signal;HPM_P1;HPM_P2
2021/07/09 00:02:41;;;;;;;15.83;13.25;;;;;;;22.41;64.99;97291.25;1812396;78;25712;-86
2021/07/09 00:05:09;;;;;;;19.12;13.43;;;;;;;22.40;65.19;97284.66;1812615;79;25602;-85
2021/07/09 00:07:36;;;;;;;16.25;13.55;;;;;;;22.42;65.24;97278.32;1812688;77;27419;-85
2021/07/09 00:10:05;;;;;;;14.30;12.82;;;;;;;22.35;65.27;97275.89;1812567;78;25684;-85
2021/07/09 00:12:33;;;;;;;15.25;13.48;;;;;;;22.28;65.28;97278.17;1812518;77;25642;-84
2021/07/09 00:15:00;;;;;;;20.80;14.13;;;;;;;22.33;65.38;97270.44;1812561;79;25731;-83
2021/07/09 00:17:29;;;;;;;20.30;14.73;;;;;;;22.33;65.31;97267.14;1812679;78;25681;-83
2021/07/09 00:19:56;;;;;;;18.52;14.73;;;;;;;22.33;65.44;97267.14;1812790;77;27342;-84
2021/07/09 00:22:24;;;;;;;21.37;14.58;;;;;;;22.24;65.50;97253.18;1812689;79;25616;-83
2021/07/09 00:24:52;;;;;;;18.50;14.60;;;;;;;22.19;65.58;97255.17;1812669;79;26190;-83
2021/07/09 00:27:19;;;;;;;16.37;13.65;;;;;;;22.14;65.60;97250.53;1812645;78;25784;-83
2021/07/09 00:29:47;;;;;;;14.13;12.60;;;;;;;22.09;65.75;97244.28;1812680;79;25831;-84
2021/07/09 00:32:15;;;;;;;17.00;14.10;;;;;;;22.12;65.81;97234.06;1812698;79;27496;-85
2021/07/09 00:34:43;;;;;;;16.02;13.00;;;;;;;22.15;65.79;97240.36;1812540;79;25329;-85
2021/07/09 00:37:10;;;;;;;16.02;13.62;;;;;;;22.25;65.84;97241.63;1812743;78;25558;-85
2021/07/09 00:39:38;;;;;;;16.73;13.48;;;;;;;22.36;65.82;97236.28;1812655;77;26413;-84
2021/07/09 00:42:05;;;;;;;16.90;13.50;;;;;;;22.35;65.79;97239.33;1812738;79;25582;-85
2021/07/09 00:44:33;;;;;;;14.95;13.43;;;;;;;22.37;65.77;97239.30;1812707;79;28119;-84
2021/07/09 00:47:01;;;;;;;15.63;13.03;;;;;;;22.40;65.78;97233.23;1812512;77;25527;-85
2021/07/09 00:49:28;;;;;;;16.35;13.98;;;;;;;22.40;65.82;97233.78;1812438;77;25583;-85
2021/07/09 00:51:56;;;;;;;14.80;13.30;;;;;;;22.40;65.81;97233.23;1812685;79;25945;-85
2021/07/09 00:54:24;;;;;;;19.12;14.50;;;;;;;22.38;65.82;97229.95;1812689;77;25897;-86
2021/07/09 00:56:51;;;;;;;18.05;13.48;;;;;;;22.31;65.73;97228.11;1815489;77;27269;-86
2021/07/09 00:59:23;;;;;;;16.07;13.62;;;;;;;22.36;66.00;97228.59;1824735;77;26242;-86
2021/07/09 01:01:49;;;;;;;15.83;13.68;;;;;;;22.43;65.96;97231.28;1813008;77;25626;-86
2021/07/09 01:04:17;;;;;;;15.32;13.72;;;;;;;22.42;65.76;97237.89;1812506;79;25842;-85
2021/07/09 01:06:44;;;;;;;15.48;13.88;;;;;;;22.31;65.93;97225.36;1817463;77;25618;-85
2021/07/09 01:09:12;;;;;;;15.58;13.68;;;;;;;22.19;65.99;97220.81;1812639;78;27219;-84
2021/07/09 01:11:40;;;;;;;14.93;13.10;;;;;;;22.18;66.30;97210.92;1812353;79;26027;-85
2021/07/09 01:14:08;;;;;;;16.82;14.45;;;;;;;22.10;66.26;97211.53;1812726;79;25607;-86
2021/07/09 01:16:36;;;;;;;17.45;14.78;;;;;;;22.16;66.37;97212.58;1811300;79;26642;-83
2021/07/09 01:19:07;;;;;;;16.90;14.68;;;;;;;22.25;66.46;97213.58;1802894;77;25585;-82
2021/07/09 01:21:35;;;;;;;18.90;15.18;;;;;;;22.38;66.42;97214.83;1791139;79;27424;-83
2021/07/09 01:24:04;;;;;;;22.62;15.28;;;;;;;22.37;66.38;97207.69;1812835;77;25660;-85
2021/07/09 01:26:31;;;;;;;17.25;15.05;;;;;;;22.28;66.40;97212.19;1812770;79;25620;-84
2021/07/09 01:28:59;;;;;;;16.45;13.78;;;;;;;22.24;66.66;97213.87;1812816;79;25801;-85
2021/07/09 01:31:27;;;;;;;16.40;13.83;;;;;;;22.26;66.74;97213.03;1812782;79;25701;-84
2021/07/09 01:33:54;;;;;;;15.43;13.78;;;;;;;22.19;66.67;97214.76;1812793;79;28086;-85
2021/07/09 01:36:22;;;;;;;16.60;12.82;;;;;;;22.16;66.63;97202.96;1826424;77;25670;-86
2021/07/09 01:38:51;;;;;;;17.75;13.25;;;;;;;22.06;66.60;97198.95;1802815;78;25160;-85
2021/07/09 01:41:20;;;;;;;16.48;13.53;;;;;;;22.06;66.74;97192.62;1804578;77;26336;-85
2021/07/09 01:43:49;;;;;;;17.00;13.55;;;;;;;22.09;66.77;97194.80;1792462;79;25594;-86
2021/07/09 01:46:16;;;;;;;15.70;13.75;;;;;;;22.15;66.74;97201.88;1812678;79;27889;-84
2021/07/09 01:48:44;;;;;;;14.63;13.18;;;;;;;22.21;66.79;97199.35;1814291;78;26242;-84
2021/07/09 01:51:12;;;;;;;16.15;14.05;;;;;;;22.29;66.80;97193.20;1821231;77;25650;-86
2021/07/09 01:53:39;;;;;;;16.57;14.50;;;;;;;22.16;66.81;97192.52;1821533;78;26480;-86
2021/07/09 01:56:07;;;;;;;16.42;14.20;;;;;;;22.09;66.91;97184.62;1753607;81;25730;-85
2021/07/09 01:58:35;;;;;;;16.48;12.65;;;;;;;22.07;67.01;97183.27;1752015;80;28281;-84
2021/07/09 02:01:02;;;;;;;14.68;13.18;;;;;;;22.06;66.94;97181.63;1753907;81;25771;-85
2021/07/09 02:03:30;;;;;;;16.05;13.38;;;;;;;22.04;66.91;97181.09;1785231;78;25638;-85
2021/07/09 02:05:58;;;;;;;14.43;12.90;;;;;;;22.01;66.99;97187.16;1754151;80;25664;-85
2021/07/09 02:08:25;;;;;;;14.30;12.85;;;;;;;21.98;66.96;97189.91;1785242;78;26248;-84
2021/07/09 02:10:53;;;;;;;14.68;12.93;;;;;;;21.98;67.00;97194.61;1754028;81;28292;-84
2021/07/09 02:13:20;;;;;;;13.48;12.07;;;;;;;21.86;66.87;97187.54;1784950;78;25602;-83
2021/07/09 02:15:48;;;;;;;13.90;12.50;;;;;;;21.75;66.91;97179.13;1753910;80;26123;-83
2021/07/09 02:18:16;;;;;;;13.15;11.83;;;;;;;21.66;67.07;97176.73;1744214;81;26532;-84
2021/07/09 02:20:45;;;;;;;15.35;12.58;;;;;;;21.63;67.11;97181.43;1753926;81;25613;-85
2021/07/09 02:23:16;;;;;;;17.45;13.20;;;;;;;21.63;67.14;97177.31;1785121;78;27290;-84
2021/07/09 02:25:44;;;;;;;15.20;13.60;;;;;;;21.70;67.33;97181.11;1754213;80;25652;-84
2021/07/09 02:28:12;;;;;;;14.23;12.78;;;;;;;21.63;67.29;97182.80;1785169;78;25591;-84
2021/07/09 02:30:40;;;;;;;14.63;13.10;;;;;;;21.49;67.33;97183.22;1753939;81;26580;-83
2021/07/09 02:33:08;;;;;;;14.03;12.53;;;;;;;21.38;67.59;97188.48;1785137;78;26143;-83
2021/07/09 02:35:39;;;;;;;15.63;13.53;;;;;;;21.38;67.65;97189.31;1753850;80;27325;-83
2021/07/09 02:38:08;;;;;;;15.97;13.33;;;;;;;21.37;67.57;97201.42;1785270;80;25185;-83
2021/07/09 02:40:36;;;;;;;15.20;13.60;;;;;;;21.26;67.67;97190.77;1754074;81;25568;-83
2021/07/09 02:43:06;;;;;;;14.13;12.68;;;;;;;21.30;67.86;97195.97;1785164;78;25686;-83
2021/07/09 02:45:34;;;;;;;15.15;13.53;;;;;;;21.20;67.91;97196.86;1754026;80;25636;-84
2021/07/09 02:48:02;;;;;;;15.78;14.18;;;;;;;21.08;68.00;97191.69;1785034;78;27328;-85
2021/07/09 02:50:30;;;;;;;15.78;13.75;;;;;;;21.12;68.21;97194.14;1731800;80;26112;-84
2021/07/09 02:52:57;;;;;;;16.57;12.93;;;;;;;21.17;68.34;97196.84;1812586;77;25606;-83
2021/07/09 02:55:25;;;;;;;15.93;13.08;;;;;;;21.24;68.30;97203.98;1812734;79;25821;-83
2021/07/09 02:57:52;;;;;;;13.88;12.47;;;;;;;21.24;68.32;97193.83;1812801;79;25128;-83
2021/07/09 03:00:20;;;;;;;13.00;11.70;;;;;;;21.25;68.30;97197.39;1812531;77;27302;-83
2021/07/09 03:02:49;;;;;;;15.65;12.55;;;;;;;21.26;68.23;97199.01;1812576;78;25642;-83
2021/07/09 03:05:16;;;;;;;13.80;12.28;;;;;;;21.28;68.28;97206.41;1812628;79;25627;-83
2021/07/09 03:07:44;;;;;;;14.00;12.40;;;;;;;21.25;68.20;97202.33;1812597;79;26436;-83
2021/07/09 03:10:12;;;;;;;16.23;12.85;;;;;;;21.24;68.32;97197.13;1812803;79;26095;-83
2021/07/09 03:12:41;;;;;;;14.28;12.23;;;;;;;21.24;68.43;97195.20;1812724;77;27230;-84
2021/07/09 03:15:11;;;;;;;13.75;12.25;;;;;;;21.17;68.40;97196.84;1812660;78;25584;-83
2021/07/09 03:17:39;;;;;;;15.75;13.75;;;;;;;21.22;68.53;97195.20;1812824;79;25710;-84
2021/07/09 03:20:10;;;;;;;16.87;13.65;;;;;;;21.34;68.61;97195.67;1812754;79;26705;-83
2021/07/09 03:22:39;;;;;;;15.55;13.88;;;;;;;21.36;68.49;97193.47;1812763;77;25128;-84
2021/07/09 03:25:09;;;;;;;18.85;14.20;;;;;;;21.32;68.52;97194.59;1812746;79;27235;-83
2021/07/09 03:27:37;;;;;;;16.70;13.25;;;;;;;21.28;68.56;97196.80;1812734;78;25540;-83
2021/07/09 03:30:09;;;;;;;15.10;12.98;;;;;;;21.28;68.62;97206.41;1812732;77;25623;-83
2021/07/09 03:32:36;;;;;;;15.77;13.87;;;;;;;21.32;68.57;97202.00;1813056;77;25661;-84
2021/07/09 03:35:07;;;;;;;20.32;13.88;;;;;;;21.34;68.54;97197.05;1812803;79;25132;-84
2021/07/09 03:37:35;;;;;;;15.83;13.58;;;;;;;21.27;68.47;97193.78;1812764;78;28139;-83
2021/07/09 03:40:05;;;;;;;16.97;13.00;;;;;;;21.26;68.59;97188.02;1812613;77;25612;-83
2021/07/09 03:42:33;;;;;;;15.45;13.40;;;;;;;21.23;68.66;97199.59;1812705;79;25530;-83
2021/07/09 03:45:01;;;;;;;17.67;13.22;;;;;;;21.33;68.78;97203.09;1805246;77;25652;-84
2021/07/09 03:47:28;;;;;;;17.57;13.58;;;;;;;21.45;68.66;97204.11;1811767;79;25322;-84
2021/07/09 03:49:56;;;;;;;14.25;12.60;;;;;;;21.45;68.60;97205.48;1816073;78;27325;-84
2021/07/09 03:52:23;;;;;;;14.28;12.60;;;;;;;21.38;68.51;97195.36;1821894;78;25198;-83
2021/07/09 03:54:51;;;;;;;16.67;13.08;;;;;;;21.37;68.59;97195.12;1821720;78;25713;-83
2021/07/09 03:57:18;;;;;;;14.98;12.47;;;;;;;21.35;68.63;97195.95;1821771;77;26411;-84
2021/07/09 03:59:46;;;;;;;15.43;13.83;;;;;;;21.33;68.69;97200.34;1812788;77;25657;-84
2021/07/09 04:02:14;;;;;;;18.17;14.20;;;;;;;21.39;68.71;97208.80;1813253;78;27285;-84
2021/07/09 04:04:41;;;;;;;15.93;14.23;;;;;;;21.51;68.80;97213.93;1826813;77;26176;-84
2021/07/09 04:07:09;;;;;;;15.25;13.68;;;;;;;21.63;68.77;97210.82;1821877;77;25728;-83
2021/07/09 04:09:36;;;;;;;15.15;13.35;;;;;;;21.64;68.61;97202.30;1806170;77;25666;-84
2021/07/09 04:12:04;;;;;;;16.65;13.90;;;;;;;21.55;68.67;97204.03;1825832;75;25661;-84
2021/07/09 04:14:33;;;;;;;17.05;14.00;;;;;;;21.43;68.62;97204.39;1812346;78;27300;-83
2021/07/09 04:17:00;;;;;;;15.90;14.13;;;;;;;21.35;68.70;97201.44;1821703;77;25655;-84
2021/07/09 04:19:28;;;;;;;15.50;13.78;;;;;;;21.32;68.85;97199.25;1821873;78;25551;-84
2021/07/09 04:21:56;;;;;;;15.78;14.15;;;;;;;21.38;69.03;97191.23;1821832;78;25891;-83
2021/07/09 04:24:23;;;;;;;17.92;14.33;;;;;;;21.48;69.04;97198.05;1821884;77;25744;-84
2021/07/09 04:26:51;;;;;;;16.10;14.13;;;;;;;21.62;69.10;97196.27;1822031;78;27423;-84
2021/07/09 04:29:18;;;;;;;18.52;13.78;;;;;;;21.71;68.92;97197.31;1821791;77;25610;-84
2021/07/09 04:31:46;;;;;;;16.55;13.30;;;;;;;21.71;68.84;97199.23;1821873;78;25526;-84
2021/07/09 04:34:13;;;;;;;15.68;13.72;;;;;;;21.61;68.85;97202.89;1821911;77;25624;-84
2021/07/09 04:36:42;;;;;;;17.98;14.30;;;;;;;21.66;69.05;97202.02;1821798;78;25652;-84
2021/07/09 04:39:10;;;;;;;16.95;13.78;;;;;;;21.67;68.99;97194.86;1821896;78;27344;-83
2021/07/09 04:41:37;;;;;;;16.00;14.05;;;;;;;21.74;68.97;97196.71;1821781;78;25119;-84
2021/07/09 04:44:05;;;;;;;16.95;14.50;;;;;;;21.79;68.93;97193.94;1821943;78;25665;-84
2021/07/09 04:46:33;;;;;;;15.78;13.85;;;;;;;21.84;68.94;97198.58;1821579;78;26559;-84
2021/07/09 04:49:01;;;;;;;17.77;14.40;;;;;;;21.87;68.94;97191.93;1821804;77;25632;-83
2021/07/09 04:51:28;;;;;;;15.70;13.35;;;;;;;21.92;68.87;97193.27;1813492;78;27734;-83
2021/07/09 04:53:56;;;;;;;17.62;14.38;;;;;;;22.02;68.84;97198.42;1812091;78;25861;-84
2021/07/09 04:56:23;;;;;;;20.95;14.43;;;;;;;22.15;68.79;97190.88;1812653;79;25613;-84
2021/07/09 04:58:51;;;;;;;17.62;14.47;;;;;;;22.20;68.64;97193.59;1812701;77;26561;-83
2021/07/09 05:01:18;;;;;;;17.35;15.48;;;;;;;22.29;68.66;97195.95;1812693;79;25713;-84
2021/07/09 05:03:46;;;;;;;19.25;15.43;;;;;;;22.36;68.55;97195.04;1812489;79;27209;-84
2021/07/09 05:06:15;;;;;;;20.65;15.28;;;;;;;22.46;68.28;97202.38;1812601;79;25712;-83
2021/07/09 05:08:42;;;;;;;16.80;14.43;;;;;;;22.53;68.16;97199.53;1799467;78;25843;-83
2021/07/09 05:11:10;;;;;;;22.82;14.70;;;;;;;22.62;68.08;97197.77;1803878;77;26412;-84
2021/07/09 05:13:39;;;;;;;17.00;15.20;;;;;;;22.69;67.96;97186.98;1812719;77;25746;-83
2021/07/09 05:16:07;;;;;;;16.97;15.10;;;;;;;22.79;67.96;97182.75;1812685;79;27410;-84
2021/07/09 05:18:34;;;;;;;16.10;13.62;;;;;;;22.87;67.85;97183.45;1812575;77;25662;-83
2021/07/09 05:21:03;;;;;;;15.70;14.20;;;;;;;22.88;67.76;97176.84;1812634;79;26161;-83
2021/07/09 05:23:30;;;;;;;20.02;14.40;;;;;;;22.92;67.66;97186.16;1812600;78;25803;-83
2021/07/09 05:25:58;;;;;;;15.45;13.90;;;;;;;23.03;67.69;97184.90;1812761;79;25628;-85
2021/07/09 05:28:26;;;;;;;15.95;14.30;;;;;;;23.17;67.60;97184.42;1812341;77;27331;-83
2021/07/09 05:30:55;;;;;;;17.27;14.33;;;;;;;23.26;67.54;97192.27;1812667;79;25546;-83
2021/07/09 05:33:22;;;;;;;17.27;14.45;;;;;;;23.34;67.25;97187.45;1812772;79;25609;-84
2021/07/09 05:35:50;;;;;;;15.75;14.15;;;;;;;23.42;67.33;97182.41;1812464;79;26168;-83
2021/07/09 05:38:18;;;;;;;19.90;14.58;;;;;;;23.53;66.99;97188.87;1812736;77;25614;-84
2021/07/09 05:40:45;;;;;;;16.05;14.00;;;;;;;23.64;66.81;97186.77;1812321;79;27300;-84
2021/07/09 05:43:13;;;;;;;16.75;14.80;;;;;;;23.82;66.22;97174.86;1812661;77;25544;-84
2021/07/09 05:45:41;;;;;;;16.52;14.40;;;;;;;23.82;66.22;97174.86;1812571;77;25623;-84
2021/07/09 05:48:09;;;;;;;17.07;14.45;;;;;;;23.89;65.95;97165.66;1812747;79;25885;-85
2021/07/09 05:50:36;;;;;;;17.48;15.10;;;;;;;23.97;66.19;97166.34;1812709;79;25546;-84
2021/07/09 05:53:04;;;;;;;16.60;14.87;;;;;;;24.20;66.12;97145.23;1820688;78;27287;-84
2021/07/09 05:55:31;;;;;;;18.02;15.63;;;;;;;24.20;66.12;97145.23;1821230;77;25518;-84
2021/07/09 05:57:59;;;;;;;19.20;14.95;;;;;;;24.39;65.47;97146.56;1820885;78;25609;-85
2021/07/09 06:00:27;;;;;;;17.73;13.78;;;;;;;24.39;65.47;97146.56;1821344;78;26420;-84
2021/07/09 06:02:54;;;;;;;26.52;14.50;;;;;;;24.50;65.63;97153.51;1821019;78;25640;-84
2021/07/09 06:05:22;;;;;;;17.57;14.98;;;;;;;24.65;64.53;97151.80;1821589;78;27359;-84
2021/07/09 06:07:50;;;;;;;18.05;14.25;;;;;;;24.65;64.53;97151.80;1821332;78;25679;-85
2021/07/09 06:10:17;;;;;;;17.50;13.43;;;;;;;24.73;64.50;97153.03;1821461;77;26143;-85
2021/07/09 06:12:45;;;;;;;18.50;13.53;;;;;;;24.82;64.17;97162.77;1821389;78;25807;-85
2021/07/09 06:15:13;;;;;;;15.05;12.88;;;;;;;24.89;63.84;97156.26;1821390;78;25637;-86
2021/07/09 06:17:40;;;;;;;13.08;10.90;;;;;;;25.00;63.52;97160.46;1821421;78;27941;-85
2021/07/09 06:20:09;;;;;;;13.85;11.85;;;;;;;25.08;62.65;97155.60;1821040;77;25529;-86
2021/07/09 06:22:37;;;;;;;14.38;11.45;;;;;;;25.11;62.58;97150.84;1821502;78;25605;-85
2021/07/09 06:25:06;;;;;;;13.85;12.18;;;;;;;25.25;62.72;97149.40;1821460;78;25615;-85
2021/07/09 06:27:34;;;;;;;18.45;12.50;;;;;;;25.39;62.51;97148.23;1821207;78;25683;-85
2021/07/09 06:30:05;;;;;;;15.00;13.00;;;;;;;25.49;62.48;97143.83;1821414;77;27292;-86
2021/07/09 06:32:32;;;;;;;14.83;13.10;;;;;;;25.57;62.63;97142.84;1821489;78;25876;-85
2021/07/09 06:35:00;;;;;;;15.85;12.73;;;;;;;25.67;62.60;97142.62;1821410;78;25597;-86
2021/07/09 06:37:28;;;;;;;13.80;12.28;;;;;;;25.80;62.30;97138.97;1821412;78;26581;-90
2021/07/09 06:39:55;;;;;;;15.03;12.35;;;;;;;25.91;62.05;97137.56;1821251;78;25837;-86
2021/07/09 06:42:23;;;;;;;14.43;11.97;;;;;;;26.01;61.89;97137.86;1821477;78;27308;-85
2021/07/09 06:44:51;;;;;;;14.00;12.58;;;;;;;26.11;61.71;97132.05;1821060;78;25518;-85
2021/07/09 06:47:20;;;;;;;17.98;13.05;;;;;;;26.24;61.54;97127.55;1821475;78;25677;-84
2021/07/09 06:49:47;;;;;;;13.72;12.13;;;;;;;26.36;61.33;97126.41;1821252;77;26678;-87
2021/07/09 06:52:15;;;;;;;13.40;12.10;;;;;;;26.42;60.92;97122.38;1816728;78;25630;-86
2021/07/09 06:54:43;;;;;;;12.95;11.53;;;;;;;26.44;60.75;97114.02;1812538;78;27979;-85
2021/07/09 06:57:11;;;;;;;15.95;11.70;;;;;;;26.52;60.95;97116.55;1812343;77;26405;-85
2021/07/09 06:59:38;;;;;;;13.70;12.30;;;;;;;26.68;61.18;97113.59;1812570;78;25562;-88
2021/07/09 07:02:06;;;;;;;15.38;12.20;;;;;;;26.80;60.83;97110.19;1812799;79;25887;-86
2021/07/09 07:04:34;;;;;;;12.63;11.28;;;;;;;26.90;60.24;97103.77;1812740;77;25536;-88
2021/07/09 07:07:02;;;;;;;12.58;11.28;;;;;;;27.00;60.01;97098.52;1812728;79;27361;-84
2021/07/09 07:09:32;;;;;;;13.70;10.55;;;;;;;27.11;59.65;97099.00;1812704;77;25594;-85
2021/07/09 07:12:02;;;;;;;15.65;10.15;;;;;;;27.21;59.42;97104.22;1812800;77;25589;-84
2021/07/09 07:14:29;;;;;;;13.60;9.55;;;;;;;27.33;59.10;97106.33;1812862;77;25900;-85
2021/07/09 07:16:56;;;;;;;10.88;9.65;;;;;;;27.43;58.58;97100.45;1790325;77;25602;-84
2021/07/09 07:19:25;;;;;;;11.53;9.95;;;;;;;27.53;58.02;97098.16;1812839;77;27439;-85
2021/07/09 07:21:53;;;;;;;12.73;10.70;;;;;;;27.62;57.83;97093.22;1812707;79;25999;-85
2021/07/09 07:24:21;;;;;;;11.78;10.05;;;;;;;27.76;58.06;97085.53;1812733;79;25665;-85
2021/07/09 07:26:49;;;;;;;11.78;10.05;;;;;;;27.90;58.19;97079.19;1812770;79;25681;-85
2021/07/09 07:29:18;;;;;;;11.75;9.85;;;;;;;28.05;57.74;97085.59;1812571;77;25533;-85
2021/07/09 07:31:45;;;;;;;12.47;9.55;;;;;;;28.16;57.11;97084.64;1812839;79;27233;-85
2021/07/09 07:34:13;;;;;;;10.10;9.18;;;;;;;28.28;57.09;97082.83;1812765;79;25625;-86
2021/07/09 07:36:40;;;;;;;10.50;9.13;;;;;;;28.40;56.93;97079.34;1789986;79;25617;-86
2021/07/09 07:39:08;;;;;;;14.13;9.45;;;;;;;28.52;56.59;97085.56;1812703;78;25651;-85
2021/07/09 07:41:36;;;;;;;13.00;9.50;;;;;;;28.60;55.91;97073.61;1812637;77;25641;-86
2021/07/09 07:44:05;;;;;;;11.95;9.40;;;;;;;28.71;55.84;97067.91;1812632;79;27113;-85
2021/07/09 07:46:34;;;;;;;11.25;8.53;;;;;;;28.85;55.39;97069.08;1812418;77;26215;-85
2021/07/09 07:49:01;;;;;;;11.08;8.68;;;;;;;29.00;54.78;97062.89;1812810;79;26107;-85
2021/07/09 07:51:29;;;;;;;9.78;8.88;;;;;;;29.17;54.35;97052.22;1813086;78;25853;-86
2021/07/09 07:53:57;;;;;;;10.90;8.53;;;;;;;29.34;53.73;97059.03;1821144;78;25589;-84
2021/07/09 07:56:24;;;;;;;9.43;8.03;;;;;;;29.45;53.34;97047.75;1821392;77;27307;-84
2021/07/09 07:58:53;;;;;;;8.20;7.40;;;;;;;29.65;52.70;97052.44;1821298;78;25529;-86
2021/07/09 08:01:21;;;;;;;10.78;8.15;;;;;;;29.88;52.30;97047.85;1821396;78;25581;-86
2021/07/09 08:03:48;;;;;;;11.08;7.37;;;;;;;30.14;51.53;97045.61;1821474;78;25558;-84
2021/07/09 08:06:16;;;;;;;10.75;8.00;;;;;;;30.40;50.96;97053.05;1821458;78;26562;-86
2021/07/09 08:08:43;;;;;;;8.40;7.50;;;;;;;30.72;50.29;97050.48;1821475;78;27404;-84
2021/07/09 08:11:12;;;;;;;8.38;7.22;;;;;;;31.09;49.76;97042.89;1788667;78;44135;-86
2021/07/09 08:13:39;;;;;;;7.62;6.85;;;;;;;31.43;49.17;97045.66;1815911;77;25830;-85
2021/07/09 08:16:10;;;;;;;11.18;7.97;;;;;;;31.81;48.57;97046.54;1809232;78;25911;-84
2021/07/09 08:18:37;;;;;;;12.07;8.43;;;;;;;32.23;48.08;97046.07;1821166;78;25589;-84
2021/07/09 08:21:05;;;;;;;8.35;7.58;;;;;;;32.49;46.96;97047.10;1803072;78;27324;-84
2021/07/09 08:23:33;;;;;;;7.75;7.05;;;;;;;32.85;46.39;97041.78;1818799;77;25794;-85
2021/07/09 08:26:00;;;;;;;7.45;6.80;;;;;;;33.15;45.91;97046.25;1821487;78;25649;-82
2021/07/09 08:28:29;;;;;;;8.10;7.30;;;;;;;33.42;45.32;97040.84;1821290;77;25726;-83
2021/07/09 08:30:56;;;;;;;8.23;7.22;;;;;;;33.67;44.49;97044.14;1821300;78;25591;-87
2021/07/09 08:33:24;;;;;;;8.73;7.80;;;;;;;33.94;43.97;97034.07;1821125;77;26664;-85
2021/07/09 08:35:51;;;;;;;8.55;7.22;;;;;;;34.22;43.52;97042.77;1821245;77;25775;-83
2021/07/09 08:38:19;;;;;;;7.58;6.87;;;;;;;34.48;42.91;97047.04;1821362;78;25887;-84
2021/07/09 08:40:47;;;;;;;7.00;6.12;;;;;;;34.72;42.84;97043.59;1821502;78;25670;-84
2021/07/09 08:43:14;;;;;;;8.10;7.30;;;;;;;35.00;42.81;97045.45;1821392;78;25587;-84
2021/07/09 08:45:42;;;;;;;8.20;6.97;;;;;;;35.20;42.67;97039.91;1821016;77;27348;-84
2021/07/09 08:48:10;;;;;;;6.85;6.25;;;;;;;35.49;41.65;97037.50;1789219;78;26372;-84
2021/07/09 08:50:37;;;;;;;9.88;6.90;;;;;;;35.73;41.18;97042.58;1821304;78;25610;-85
2021/07/09 08:53:05;;;;;;;7.12;6.42;;;;;;;35.95;39.99;97047.26;1821121;78;25823;-86
2021/07/09 08:55:32;;;;;;;7.90;6.80;;;;;;;36.16;39.43;97041.63;1821443;77;25522;-86
2021/07/09 08:58:00;;;;;;;8.35;6.65;;;;;;;36.34;39.03;97039.23;1821349;77;27116;-84
2021/07/09 09:00:36;;;;;;;7.53;6.33;;;;;;;36.51;38.50;97032.72;1821202;77;26166;-83
2021/07/09 09:03:13;;;;;;;7.53;6.83;;;;;;;36.60;37.94;97026.95;1821360;77;25116;-83
2021/07/09 09:05:41;;;;;;;7.60;6.90;;;;;;;36.60;37.72;97029.77;1821468;78;26243;-84
2021/07/09 09:08:11;;;;;;;8.53;6.53;;;;;;;36.69;37.53;97028.88;1821287;78;25504;-84
2021/07/09 09:10:51;;;;;;;7.35;6.28;;;;;;;36.48;36.78;97030.08;1821299;78;27772;-88
2021/07/09 09:13:27;;;;;;;8.08;6.40;;;;;;;36.26;36.75;97028.30;1821335;78;26253;-81
2021/07/09 09:16:11;;;;;;;7.05;6.37;;;;;;;36.23;36.70;97020.67;1821343;78;25487;-87
2021/07/09 09:18:45;;;;;;;6.45;5.92;;;;;;;36.36;36.58;97023.36;1798779;78;26441;-84
2021/07/09 09:21:20;;;;;;;7.35;6.25;;;;;;;36.43;35.86;97027.65;1821264;78;25778;-83
2021/07/09 09:23:54;;;;;;;7.37;6.67;;;;;;;36.53;35.78;97024.11;1821408;78;27217;-83
2021/07/09 09:26:44;;;;;;;7.80;6.60;;;;;;;36.57;35.21;97027.77;1821457;77;25569;-85
2021/07/09 09:29:17;;;;;;;8.10;6.50;;;;;;;36.69;35.30;97033.67;1803389;78;25593;-83
2021/07/09 09:31:44;;;;;;;7.87;6.42;;;;;;;36.85;35.15;97027.16;1821040;77;26502;-88
2021/07/09 09:34:12;;;;;;;7.47;6.08;;;;;;;37.13;35.65;97036.37;1821395;78;25747;-85
2021/07/09 09:36:45;;;;;;;6.60;6.05;;;;;;;37.27;35.08;97023.81;1821529;78;27385;-82
2021/07/09 09:39:18;;;;;;;8.60;6.40;;;;;;;37.35;34.58;97030.27;1820747;78;25538;-84
2021/07/09 09:41:51;;;;;;;7.00;5.85;;;;;;;37.44;34.47;97030.09;1821459;78;25605;-83
2021/07/09 09:44:19;;;;;;;6.40;5.80;;;;;;;37.52;34.34;97037.17;1817932;77;25622;-83
2021/07/09 09:46:47;;;;;;;7.10;6.05;;;;;;;37.59;33.93;97037.19;1821293;78;25175;-83
2021/07/09 09:49:16;;;;;;;8.03;6.25;;;;;;;37.70;34.01;97038.05;1821501;77;27226;-82
2021/07/09 09:51:49;;;;;;;7.22;6.50;;;;;;;37.79;33.69;97030.05;1801441;77;25713;-84
2021/07/09 09:54:18;;;;;;;12.00;6.78;;;;;;;37.79;33.40;97026.64;1812022;78;25614;-85
2021/07/09 09:56:47;;;;;;;7.53;6.20;;;;;;;37.89;34.20;97026.45;1812663;78;25783;-85
2021/07/09 09:59:19;;;;;;;6.92;6.25;;;;;;;38.03;33.51;97027.08;1812804;79;25740;-83
2021/07/09 10:01:58;;;;;;;7.08;6.47;;;;;;;38.06;33.54;97024.25;1812993;79;27977;-82
2021/07/09 10:04:28;;;;;;;7.53;6.28;;;;;;;37.84;33.44;97020.59;1812803;77;25565;-84
2021/07/09 10:06:57;;;;;;;6.83;6.22;;;;;;;37.29;33.43;97016.38;1812740;79;25287;-82
2021/07/09 10:09:26;;;;;;;7.42;6.72;;;;;;;36.87;33.65;97011.30;1812802;79;26528;-85
2021/07/09 10:11:55;;;;;;;10.78;7.05;;;;;;;36.48;33.60;97018.84;1812910;79;25594;-82
2021/07/09 10:14:28;;;;;;;10.00;6.65;;;;;;;35.92;34.04;97014.32;1812753;79;27496;-82
2021/07/09 10:17:00;;;;;;;13.78;6.65;;;;;;;35.61;34.65;97015.59;1812711;78;25489;-81
2021/07/09 10:19:40;;;;;;;7.55;6.70;;;;;;;35.43;35.67;97013.75;1812931;79;25573;-81
2021/07/09 10:22:10;;;;;;;11.25;7.60;;;;;;;35.42;36.05;97006.52;1813025;78;25669;-82
2021/07/09 10:24:44;;;;;;;8.03;7.30;;;;;;;35.53;36.35;97002.64;1812758;79;25757;-82
2021/07/09 10:27:13;;;;;;;7.90;6.30;;;;;;;35.60;36.03;97013.97;1812856;77;27334;-82
2021/07/09 10:29:46;;;;;;;8.20;6.42;;;;;;;35.61;34.94;97016.98;1812775;79;26195;-83
2021/07/09 10:32:37;;;;;;;11.28;6.65;;;;;;;35.58;33.96;97014.14;1812826;79;25574;-85
2021/07/09 10:35:12;;;;;;;7.72;5.90;;;;;;;35.62;33.76;97014.99;1812627;79;26570;-83
2021/07/09 10:37:39;;;;;;;9.45;5.62;;;;;;;35.52;33.18;97014.25;1778833;79;25708;-82
2021/07/09 10:40:20;;;;;;;9.60;6.03;;;;;;;35.44;33.05;97016.77;1812668;79;28205;-83
2021/07/09 10:42:52;;;;;;;6.37;5.50;;;;;;;35.29;32.73;97015.20;1812494;79;25819;-83
2021/07/09 10:45:27;;;;;;;6.60;5.87;;;;;;;35.30;32.75;97012.60;1812612;79;25587;-82
2021/07/09 10:48:10;;;;;;;6.72;6.12;;;;;;;35.36;32.73;97011.09;1812631;79;25682;-83
2021/07/09 10:50:53;;;;;;;9.15;6.67;;;;;;;35.33;32.38;97009.64;1812759;77;25649;-85
2021/07/09 10:53:26;;;;;;;10.08;7.10;;;;;;;35.17;32.73;97007.59;1815994;78;27280;-83
2021/07/09 10:56:08;;;;;;;8.03;7.22;;;;;;;35.02;33.87;97010.83;1821210;78;25574;-82
2021/07/09 10:58:43;;;;;;;9.90;7.37;;;;;;;34.95;34.81;97007.31;1821465;78;25605;-85
2021/07/09 11:01:28;;;;;;;8.03;7.33;;;;;;;34.85;35.58;97008.58;1821411;77;26262;-84
2021/07/09 11:04:08;;;;;;;9.23;7.90;;;;;;;34.77;35.80;97001.27;1822185;77;25728;-85
2021/07/09 11:06:42;;;;;;;9.28;7.37;;;;;;;34.78;35.95;97001.48;1816931;78;27288;-87
2021/07/09 11:09:13;;;;;;;10.80;6.97;;;;;;;34.86;36.26;96998.98;1821257;78;25851;-86
2021/07/09 11:11:47;;;;;;;;;;;;;;;35.12;36.01;96996.13;1824139;77;25613;-82
2021/07/09 11:14:33;;;;;;;11.45;7.72;;;;;;;35.33;36.29;96992.20;1821574;77;25754;-82
2021/07/09 11:17:17;;;;;;;13.95;7.87;;;;;;;35.48;36.25;96991.78;1799884;78;26145;-87
2021/07/09 11:19:45;;;;;;;10.90;8.13;;;;;;;35.67;36.27;96997.78;1821484;78;27866;-85
2021/07/09 11:22:14;;;;;;;12.60;8.88;;;;;;;35.64;36.35;96996.55;1819852;78;25715;-83
2021/07/09 11:24:53;;;;;;;12.47;9.18;;;;;;;35.65;36.22;97000.16;1798032;78;25132;-84
2021/07/09 11:27:22;;;;;;;9.23;8.15;;;;;;;35.59;36.64;96996.11;1801116;77;25673;-84
2021/07/09 11:29:50;;;;;;;13.32;7.97;;;;;;;35.61;36.52;96995.94;1821420;77;25676;-83
2021/07/09 11:32:20;;;;;;;11.03;8.13;;;;;;;35.57;36.53;96997.08;1821446;78;27394;-84